Stations météo

réclame
Mon MeteoGroup
Grazalema, Espagne (8455): Température de l'air & dewpoint: 17.04.2018 03:00:00 - 23.04.2018 03:00:00 (CEST)Grazalema, Espagne (8455): Vitesse du vent & gusts: 17.04.2018 03:00:00 - 23.04.2018 03:00:00 (CEST)Grazalema, Espagne (8455): Direction du vent: 17.04.2018 03:00:00 - 23.04.2018 03:00:00 (CEST)Grazalema, Espagne (8455): Quantités de précipitations: 17.04.2018 03:00:00 - 23.04.2018 03:00:00 (CEST)
Date & Time tt [°C] td [°C] ff [km/h] ff [knt] fx [km/h] fx [knt] dd rr [mm]
23.04.2018 03:00:00 13,3 12,2 0 0 9 5 N 0,0
23.04.2018 02:00:00 13,2 11,9 1 1 15 8 W -
23.04.2018 01:00:00 13,2 11,6 5 3 10 5 WSW 0,0
23.04.2018 00:00:00 13,7 12,7 0 0 7 4 WSW 0,0
22.04.2018 23:00:00 13,8 12,8 1 1 10 5 SSE 0,0
22.04.2018 22:00:00 14,3 12,8 0 0 10 5 NE 0,0
22.04.2018 21:00:00 15,4 12,3 4 2 10 6 ENE 0,0
22.04.2018 20:00:00 16,7 12,8 3 2 11 6 ENE -
22.04.2018 19:00:00 17,8 12,6 5 3 14 7 ENE 0,0
22.04.2018 18:00:00 18,6 13,1 5 3 13 7 ENE 0,0
22.04.2018 17:00:00 18,9 12,6 5 3 16 8 ENE 0,0
22.04.2018 16:00:00 19,3 13,3 8 5 20 11 ENE 0,0
22.04.2018 15:00:00 18,9 12,6 7 4 15 8 ENE 0,0
22.04.2018 14:00:00 18,4 12,4 6 3 21 11 ENE -
22.04.2018 13:00:00 16,8 8,3 13 7 34 18 ENE 0,0
22.04.2018 12:00:00 17,3 7,8 16 9 37 20 ENE 0,0
22.04.2018 11:00:00 15,9 7,4 12 6 41 22 ENE 0,0
22.04.2018 10:00:00 15,9 7,4 20 11 46 25 E 0,0
22.04.2018 09:00:00 14,5 7,1 23 13 51 28 E 0,1
22.04.2018 08:00:00 14,0 7,1 14 7 37 20 E -
22.04.2018 07:00:00 13,4 7,1 11 6 22 12 E 0,0
22.04.2018 06:00:00 11,3 9,6 4 2 11 6 E 0,0
22.04.2018 05:00:00 9,7 8,5 5 3 11 6 W 0,0
22.04.2018 04:00:00 10,0 8,7 4 2 9 5 W 0,0
22.04.2018 03:00:00 10,9 9,3 5 3 23 12 W 0,1
22.04.2018 02:00:00 11,0 9,8 6 3 13 7 W -
22.04.2018 01:00:00 11,3 10,5 4 2 20 11 W 0,0
22.04.2018 00:00:00 11,1 9,7 5 3 13 7 W 0,0
21.04.2018 23:00:00 12,1 10,3 2 1 11 6 S 0,1
21.04.2018 22:00:00 12,3 11,2 1 1 25 13 WSW 0,4
21.04.2018 21:00:00 12,7 11,1 1 0 33 18 SSW 0,2
21.04.2018 20:00:00 15,8 8,5 2 1 29 16 NNW -
21.04.2018 19:00:00 16,2 8,7 15 8 32 18 E 0,0
21.04.2018 18:00:00 16,0 9,7 13 7 29 16 ENE 0,0
21.04.2018 17:00:00 16,3 10,4 14 7 24 13 E 0,0
21.04.2018 16:00:00 14,8 10,6 5 3 20 11 E 0,0
21.04.2018 15:00:00 15,3 10,3 8 4 20 11 E 0,0
21.04.2018 14:00:00 16,0 9,9 8 4 27 14 ENE -
21.04.2018 13:00:00 14,8 8,5 11 6 34 18 ENE 0,0
21.04.2018 12:00:00 14,9 8,7 20 11 42 23 E 0,0
21.04.2018 11:00:00 14,4 8,1 19 10 39 21 E 0,0
21.04.2018 10:00:00 13,3 7,3 8 5 27 14 E 0,0
21.04.2018 09:00:00 13,7 7,4 5 3 21 12 E 0,0
21.04.2018 08:00:00 13,2 7,1 14 7 40 21 E -
21.04.2018 07:00:00 13,0 7,0 21 11 39 21 E 0,0
21.04.2018 06:00:00 13,0 6,8 13 7 32 18 E 0,0
21.04.2018 05:00:00 13,0 6,8 5 3 24 13 S 0,0
21.04.2018 04:00:00 13,3 7,1 3 2 29 15 ENE 0,0
21.04.2018 03:00:00 13,4 7,1 13 7 39 21 ENE 0,0
21.04.2018 02:00:00 13,2 7,1 13 7 39 21 ENE -
21.04.2018 01:00:00 14,8 7,3 10 5 40 22 E 0,0
21.04.2018 00:00:00 14,3 8,3 8 4 26 14 E 0,0
20.04.2018 23:00:00 11,8 7,8 10 5 39 21 ESE 0,0
20.04.2018 22:00:00 13,1 7,6 8 4 27 15 ENE 0,0
20.04.2018 21:00:00 13,9 7,4 1 1 26 14 ENE 0,0
20.04.2018 20:00:00 14,5 8,3 3 1 29 16 SSW -
20.04.2018 19:00:00 14,6 8,3 2 1 15 8 NE 0,0
20.04.2018 18:00:00 13,9 7,8 10 5 30 16 NE 0,0
20.04.2018 17:00:00 13,8 8,3 10 5 32 17 NE 0,0
20.04.2018 16:00:00 12,2 7,3 18 10 41 22 ENE 0,0
20.04.2018 15:00:00 13,5 7,3 16 8 45 25 NE 0,0
20.04.2018 14:00:00 13,5 8,0 12 6 41 22 NE -
20.04.2018 13:00:00 14,9 8,4 8 4 33 18 NE 0,0
20.04.2018 12:00:00 13,9 7,7 11 6 29 16 NE 0,0
20.04.2018 11:00:00 13,5 7,4 8 5 28 15 NNE 0,0
20.04.2018 10:00:00 12,0 7,1 9 5 27 14 NE 0,0
20.04.2018 09:00:00 11,7 6,4 7 4 36 19 SSE 0,0
20.04.2018 08:00:00 11,0 6,1 5 3 25 13 SE -
20.04.2018 07:00:00 10,8 5,8 4 2 28 15 SSW 0,0
20.04.2018 06:00:00 11,5 5,3 5 3 35 19 ENE 0,0
20.04.2018 05:00:00 12,1 5,5 4 2 35 19 ESE 0,0
20.04.2018 04:00:00 11,8 5,6 10 6 41 22 SSE 0,0
20.04.2018 03:00:00 11,6 5,9 9 5 34 18 SSE 0,0
20.04.2018 02:00:00 12,2 5,3 9 5 29 16 ESE -
20.04.2018 01:00:00 12,5 4,6 9 5 32 17 ESE 0,0
20.04.2018 00:00:00 13,5 4,1 9 5 35 19 ESE 0,0
19.04.2018 23:00:00 13,9 3,9 8 4 27 15 E 0,0
19.04.2018 22:00:00 14,6 3,9 9 5 27 14 E 0,0
19.04.2018 21:00:00 14,7 3,8 9 5 30 16 ENE 0,0
19.04.2018 20:00:00 15,6 3,8 8 5 32 18 ENE -
19.04.2018 19:00:00 16,5 4,5 10 5 29 16 NE 0,0
19.04.2018 18:00:00 17,5 4,8 12 7 39 21 NE 0,0
19.04.2018 17:00:00 18,6 5,5 15 8 38 21 ENE 0,0
19.04.2018 16:00:00 18,3 5,5 15 8 33 18 ENE 0,0
19.04.2018 15:00:00 18,4 5,6 16 9 36 19 ENE 0,0
19.04.2018 14:00:00 18,5 5,6 13 7 39 21 NE -
19.04.2018 13:00:00 18,1 5,3 14 8 29 16 ENE 0,0
19.04.2018 12:00:00 17,5 4,8 12 6 32 18 ENE 0,0
19.04.2018 11:00:00 17,1 5,1 9 5 28 15 ENE 0,0
19.04.2018 10:00:00 15,3 4,3 8 4 31 17 E 0,0
19.04.2018 09:00:00 14,1 2,9 8 4 29 16 SE 0,0
19.04.2018 08:00:00 13,3 1,9 9 5 25 14 SE -
19.04.2018 07:00:00 13,3 1,1 8 4 25 14 SE 0,0
19.04.2018 06:00:00 13,1 0,4 9 5 31 17 SE 0,0
19.04.2018 05:00:00 13,5 0,9 11 6 29 16 SE 0,0
19.04.2018 04:00:00 13,6 0,9 8 4 29 16 SE 0,0
19.04.2018 03:00:00 14,1 1,3 8 4 28 15 SSE 0,0
19.04.2018 02:00:00 14,3 1,5 8 4 29 16 SE -
19.04.2018 01:00:00 14,5 1,5 12 6 36 19 SSE 0,0
19.04.2018 00:00:00 14,9 1,5 9 5 33 18 ESE 0,0
18.04.2018 23:00:00 14,9 1,5 15 8 33 18 SSE 0,0
18.04.2018 22:00:00 15,0 1,5 9 5 29 15 E 0,0
18.04.2018 21:00:00 15,9 1,9 9 5 24 13 E 0,0
18.04.2018 20:00:00 16,7 2,7 6 4 23 12 E -
18.04.2018 19:00:00 18,2 3,6 9 5 25 13 NE 0,0
18.04.2018 18:00:00 19,8 4,3 9 5 25 13 ENE 0,0
18.04.2018 17:00:00 21,6 5,5 5 3 21 12 ENE 0,0
18.04.2018 16:00:00 20,5 4,5 7 4 20 11 NNE 0,0
18.04.2018 15:00:00 21,5 5,5 8 4 22 12 NE 0,0
18.04.2018 14:00:00 20,7 4,6 8 5 25 14 NE -
18.04.2018 13:00:00 20,0 4,5 9 5 20 11 NE 0,0
18.04.2018 12:00:00 19,2 3,8 7 4 21 12 ENE 0,0
18.04.2018 11:00:00 19,0 3,9 5 3 23 13 E 0,0
18.04.2018 10:00:00 17,2 3,0 6 4 22 12 ESE 0,0
18.04.2018 09:00:00 16,5 2,9 7 4 23 13 SE 0,0
18.04.2018 08:00:00 14,9 3,0 6 3 24 13 SE -
18.04.2018 07:00:00 14,4 3,2 4 2 24 13 SE 0,0
18.04.2018 06:00:00 14,6 3,9 5 3 17 9 SE 0,0
18.04.2018 05:00:00 15,1 2,7 6 4 27 15 SE 0,0
18.04.2018 04:00:00 15,7 1,1 7 4 27 14 SE 0,0
18.04.2018 03:00:00 15,3 1,5 8 4 29 16 SE 0,0
18.04.2018 02:00:00 14,2 -2,2 6 3 25 13 S -
18.04.2018 01:00:00 14,6 1,1 4 2 22 12 SSE 0,0
18.04.2018 00:00:00 10,1 2,5 7 4 16 9 W 0,0
17.04.2018 23:00:00 10,7 7,6 6 3 11 6 W 0,0
17.04.2018 22:00:00 11,2 8,8 3 1 9 5 W 0,0
17.04.2018 21:00:00 12,4 9,0 6 4 9 5 W 0,0
17.04.2018 20:00:00 15,5 8,5 3 2 10 5 W -
17.04.2018 19:00:00 18,7 8,4 5 3 13 7 ENE 0,0
17.04.2018 18:00:00 19,5 7,3 7 4 16 9 ENE 0,0
17.04.2018 17:00:00 20,1 6,8 7 4 16 9 ENE 0,0
17.04.2018 16:00:00 20,5 6,4 8 4 16 9 ENE 0,0
17.04.2018 15:00:00 20,6 5,8 6 3 16 9 E 0,0
17.04.2018 14:00:00 20,1 5,8 3 1 13 7 E -
17.04.2018 13:00:00 18,7 4,8 4 2 14 7 ENE 0,0
17.04.2018 12:00:00 18,0 4,1 5 3 11 6 E 0,0
17.04.2018 11:00:00 16,6 1,9 5 3 9 5 ENE 0,0
17.04.2018 10:00:00 14,1 1,3 3 1 9 5 ENE 0,0
17.04.2018 09:00:00 9,4 1,3 7 4 11 6 W 0,0
17.04.2018 08:00:00 6,3 -2,0 6 4 11 6 W -
17.04.2018 07:00:00 5,1 -0,7 7 4 14 8 W 0,0
17.04.2018 06:00:00 4,3 2,1 9 5 13 7 W 0,0
17.04.2018 05:00:00 5,0 3,6 5 3 10 6 W 0,0
17.04.2018 04:00:00 5,3 3,8 7 4 11 6 W 0,0
17.04.2018 03:00:00 5,3 3,4 8 4 13 7 W 0,0

tt = Température de l'air
td = dewpoint
ff = Vitesse du vent
fx = gusts
dd = Direction du vent
rr = Quantités de précipitations

stations d'obs. à proximité